• Join FlightAware (Why Join?)
  • Login
  • US Flag 
10:21PM EDT


 

Airport Tracker/Info


-or-


 

Live Flight TrackerFlight Track Log ✈ EJA251 ✈ 06-May-2012 ✈ KCGF - KLUK

Flight Track Log - Related Links

Times and Time Zones

All times are in EDT time to prevent confusion due to time zone crossing. See the EJA251 flight status page for this flight to view local times or setup timezone preferences in your user account.

Time Position Orientation Groundspeed Altitude Reporting Facility
EDT Latitude Longitude Course Direction KTS MPH feet Rate Location/Type
04:53PM 41.5708 -81.4686 116° Southeast 168 193 1,600  Level Cleveland Center
04:54PM 41.5525 -81.4183 175° South 198 228 3,700 1,560 Climbing Cleveland Center
04:55PM 41.4733 -81.4089 213° Southwest 212 244 5,600 1,080 Climbing Cleveland Center
04:56PM 41.4419 -81.4361 266° West 229 264 6,000 1,200 Climbing Cleveland Center
04:57PM 41.4394 -81.4889 256° West 259 298 7,300 2,640 Climbing Cleveland Center
04:58PM 41.4219 -81.5828 221° Southwest 279 321 10,400 7,320 Climbing Cleveland Center
04:59PM 41.3586 -81.6564 211° Southwest 274 315 22,000 2,520 Climbing Cleveland Center
05:00PM 41.2811 -81.7186 214° Southwest 301 346 15,500 -1,980 Descending Cleveland Center
05:01PM 41.2031 -81.7892 212° Southwest 324 373 18,100 2,580 Climbing Cleveland Center
05:02PM 41.1106 -81.8672 213° Southwest 353 406 20,700 1,620 Climbing Cleveland Center
05:03PM 41.0075 -81.9561 211° Southwest 366 421 21,700 420 Climbing Cleveland Center
05:05PM 40.8442 -82.0867 209° Southwest 394 453 22,000 60 Climbing Indianapolis Center
05:06PM 40.7472 -82.1572 209° Southwest 410 472 22,000  Level Indianapolis Center
05:07PM 40.6439 -82.2331 208° Southwest 417 480 22,000  Level Indianapolis Center
05:08PM 40.5403 -82.3061 209° Southwest 417 480 22,000  Level Indianapolis Center
05:09PM 40.4286 -82.3872 210° Southwest 417 480 22,000  Level Indianapolis Center
05:10PM 40.3272 -82.4625 231° Southwest 417 480 22,000  Level Indianapolis Center
05:11PM 40.2553 -82.5806 238° Southwest 410 472 22,000  Level Indianapolis Center
05:12PM 40.1878 -82.7228 236° Southwest 423 487 22,000  Level Indianapolis Center
05:13PM 40.1217 -82.8486 236° Southwest 423 487 22,000  Level Indianapolis Center
05:14PM 40.0558 -82.9739 236° Southwest 418 481 22,000  Level Indianapolis Center
05:15PM 39.9917 -83.0964 237° Southwest 418 481 22,000 -1,080 Level Indianapolis Center
05:16PM 39.9256 -83.2267 236° Southwest 423 487 19,900 -2,580 Descending Indianapolis Center
05:17PM 39.8714 -83.3297 236° Southwest 425 489 17,700 -2,940 Descending Indianapolis Center
05:17PM 39.8258 -83.4192 232° Southwest 415 478 15,800 -2,640 Descending Indianapolis Center
05:18PM 39.7861 -83.4842 237° Southwest 418 481 14,300 -2,520 Descending Indianapolis Center
05:19PM 39.7300 -83.5975 239° Southwest 407 468 11,800 -1,740 Descending Indianapolis Center
05:20PM 39.6797 -83.7053 232° Southwest 379 436 10,900 -660 Descending Indianapolis Center
05:21PM 39.6297 -83.7889 228° Southwest 345 397 10,500 -900 Descending Indianapolis Center
05:22PM 39.5775 -83.8642 227° Southwest 303 349 9,100 -1,320 Descending Indianapolis Center
05:23PM 39.5314 -83.9286 226° Southwest 294 338 7,900 -1,260 Descending Indianapolis Center
05:24PM 39.4664 -84.0169 228° Southwest 294 338 6,600 -780 Descending Indianapolis Center
05:26PM 39.3500 -84.1833 226° Southwest 273 314 5,500 -960 Descending Cincinnati TRACON
05:27PM 39.3000 -84.2500 226° Southwest 287 330 3,900 -1,440 Descending Cincinnati TRACON
05:28PM 39.2522 -84.3131 227° Southwest 289 333 2,900 -1,020 Descending Indianapolis Center
05:36PM 39.0332 -84.6171 73° East  Level FlightAware Approximate
05:37PM 39.0615 -84.4989 73° East  Level FlightAware Approximate